Time;durP1;ratioP1;P1;durP2;ratioP2;P2;SDS_P1;SDS_P2;PMS_P1;PMS_P2;Temp;Humidity;BMP_temperature;BMP_pressure;BME280_temperature;BME280_humidity;BME280_pressure;Samples;Min_cycle;Max_cycle;Signal;HPM_P1;HPM_P2
2022/09/02 00:00:35;;;;;;;5.47;2.87;;;15.00;99.90;16.30;97021.00;;;;5027752;28;20548;-72
2022/09/02 00:03:24;;;;;;;0.90;0.90;;;15.00;99.90;16.30;97027.00;;;;5018828;28;20202;-71
2022/09/02 00:06:13;;;;;;;1.53;1.43;;;15.00;99.90;16.40;97028.00;;;;5012474;28;20209;-71
2022/09/02 00:09:05;;;;;;;2.60;1.63;;;15.00;99.90;16.40;97022.00;;;;5021535;28;20221;-71
2022/09/02 00:11:55;;;;;;;2.43;1.60;;;15.10;99.90;16.20;97012.00;;;;5020702;28;20200;-71
2022/09/02 00:14:43;;;;;;;3.77;1.63;;;15.10;99.90;16.30;97019.00;;;;5026030;28;20220;-71
2022/09/02 00:17:34;;;;;;;1.40;1.30;;;15.00;99.90;16.40;97012.00;;;;5015552;28;20602;-71
2022/09/02 00:20:22;;;;;;;1.80;1.50;;;15.10;99.90;16.20;97009.00;;;;5024216;28;20204;-71
2022/09/02 00:23:12;;;;;;;1.83;1.47;;;15.00;99.90;16.10;97004.00;;;;5030318;28;20197;-72
2022/09/02 00:26:01;;;;;;;3.10;1.60;;;15.00;99.90;16.20;97010.00;;;;5030043;28;20228;-72
2022/09/02 00:28:50;;;;;;;1.87;1.40;;;15.00;99.90;16.10;97001.00;;;;5023758;28;20194;-71
2022/09/02 00:31:39;;;;;;;2.20;1.60;;;15.00;99.90;16.10;97002.00;;;;5016176;28;20685;-71
2022/09/02 00:34:29;;;;;;;1.50;1.40;;;15.00;99.90;16.20;97008.00;;;;5023958;28;20194;-71
2022/09/02 00:37:18;;;;;;;2.93;1.50;;;15.00;99.90;16.10;96999.00;;;;5029884;28;20225;-72
2022/09/02 00:40:09;;;;;;;1.67;1.43;;;15.00;99.90;16.00;96992.00;;;;5020876;28;20194;-71
2022/09/02 00:42:58;;;;;;;2.77;1.47;;;14.90;99.90;16.10;96998.00;;;;5022465;28;20232;-72
2022/09/02 00:45:47;;;;;;;3.17;1.77;;;14.90;99.90;16.30;96996.00;;;;5030140;28;20224;-72
2022/09/02 00:48:40;;;;;;;3.80;1.47;;;14.90;99.90;16.10;96985.00;;;;5052383;23;20704;-88
2022/09/02 00:51:37;;;;;;;1.30;1.20;;;14.90;99.90;15.90;96988.00;;;;5079418;28;20188;-88
2022/09/02 00:54:30;;;;;;;4.03;1.63;;;14.90;99.90;16.00;96987.00;;;;5087188;28;20203;-88
2022/09/02 00:57:23;;;;;;;1.60;1.50;;;14.90;99.90;16.00;96987.00;;;;5088142;28;20751;-88
2022/09/02 01:00:16;;;;;;;2.97;1.67;;;14.90;99.90;16.10;96984.00;;;;5089439;28;20211;-88
2022/09/02 01:03:09;;;;;;;4.00;1.50;;;14.90;99.90;16.00;96981.00;;;;5088626;28;20562;-88
2022/09/02 01:05:58;;;;;;;2.03;1.93;;;14.90;99.90;15.80;96978.00;;;;5073970;28;20196;-88
2022/09/02 01:08:57;;;;;;;2.47;1.40;;;14.80;99.90;15.70;96984.00;;;;5083143;28;20226;-88
2022/09/02 01:11:52;;;;;;;3.70;1.30;;;14.80;99.90;15.50;96991.00;;;;5066145;28;20680;-87
2022/09/02 01:14:41;;;;;;;4.10;1.63;;;14.70;99.90;15.60;96985.00;;;;5071808;28;20192;-87
2022/09/02 01:17:33;;;;;;;2.93;2.73;;;14.60;99.90;15.50;96986.00;;;;5065097;28;20230;-88
2022/09/02 01:20:25;;;;;;;2.30;1.80;;;14.60;99.90;15.70;96992.00;;;;5075829;28;20192;-87
2022/09/02 01:23:17;;;;;;;3.40;1.63;;;14.60;99.90;15.60;96986.00;;;;5089970;28;20210;-87
2022/09/02 01:26:07;;;;;;;5.50;1.43;;;14.50;99.90;15.50;96980.00;;;;5090090;28;20216;-88
2022/09/02 01:28:55;;;;;;;1.80;1.30;;;14.50;99.90;15.50;96978.00;;;;5073183;28;20215;-88
2022/09/02 01:31:45;;;;;;;4.87;2.20;;;14.50;99.90;15.70;96980.00;;;;5074767;28;20207;-88
2022/09/02 01:34:33;;;;;;;3.03;1.47;;;14.50;99.90;15.80;96990.00;;;;5088416;28;20247;-88
2022/09/02 01:37:22;;;;;;;3.50;1.92;;;14.50;99.90;15.70;96986.00;;;;5088159;28;20386;-88
2022/09/02 01:40:17;;;;;;;2.17;1.40;;;14.50;99.90;15.90;96982.00;;;;5065487;28;20616;-88
2022/09/02 01:43:11;;;;;;;1.63;1.53;;;14.60;99.90;15.80;96985.00;;;;5071141;28;20561;-88
2022/09/02 01:46:02;;;;;;;1.13;1.10;;;14.60;99.90;15.90;96975.00;;;;5064083;28;20219;-87
2022/09/02 01:48:51;;;;;;;2.23;1.30;;;14.60;99.90;16.00;96988.00;;;;5089470;28;20227;-87
2022/09/02 01:51:40;;;;;;;1.33;1.23;;;14.60;99.90;15.80;96991.00;;;;5087434;28;20206;-87
2022/09/02 01:54:29;;;;;;;1.80;1.40;;;14.60;99.90;15.80;96987.00;;;;5086996;28;20188;-88
2022/09/02 01:57:19;;;;;;;2.30;1.47;;;14.60;99.90;15.80;96981.00;;;;5087356;28;20200;-88
2022/09/02 02:00:11;;;;;;;2.33;1.73;;;14.60;99.90;15.70;96977.00;;;;5074401;28;20227;-87
2022/09/02 02:03:01;;;;;;;1.60;1.50;;;14.60;99.90;15.70;96983.00;;;;5067217;28;20205;-88
2022/09/02 02:05:49;;;;;;;2.00;1.53;;;14.50;99.90;15.70;96970.00;;;;5071363;28;20200;-88
2022/09/02 02:08:38;;;;;;;1.50;1.40;;;14.50;99.90;15.90;96972.00;;;;5064561;28;20220;-87
2022/09/02 02:11:27;;;;;;;1.63;1.53;;;14.60;99.90;15.90;96975.00;;;;5072381;28;20193;-88
2022/09/02 02:14:18;;;;;;;2.13;1.63;;;14.60;99.90;15.90;96974.00;;;;5087957;28;20195;-88
2022/09/02 02:17:06;;;;;;;1.60;1.50;;;14.60;99.90;15.70;96974.00;;;;5073097;28;20188;-88
2022/09/02 02:19:55;;;;;;;2.77;1.80;;;14.60;99.90;15.80;96964.00;;;;5080764;28;20253;-87
2022/09/02 02:22:45;;;;;;;2.40;1.63;;;14.60;99.90;15.50;96958.00;;;;5087863;28;20204;-88
2022/09/02 02:25:34;;;;;;;2.37;1.67;;;14.50;99.90;15.10;96960.00;;;;5087871;28;20206;-89
2022/09/02 02:28:23;;;;;;;1.77;1.40;;;14.40;99.90;15.10;96965.00;;;;5078805;28;20604;-88
2022/09/02 02:31:13;;;;;;;2.53;1.60;;;14.30;99.90;15.20;96958.00;;;;5064282;28;20192;-88
2022/09/02 02:34:02;;;;;;;6.07;2.30;;;14.20;99.90;15.00;96958.00;;;;5060440;28;20200;-88
2022/09/02 02:36:51;;;;;;;2.23;1.80;;;14.20;99.90;15.10;96963.00;;;;5081553;28;20218;-89
2022/09/02 02:39:41;;;;;;;1.90;1.77;;;14.10;99.90;15.10;96963.00;;;;5086816;28;20223;-87
2022/09/02 02:42:30;;;;;;;2.30;2.10;;;14.10;99.90;15.30;96961.00;;;;5079196;28;20196;-88
2022/09/02 02:45:19;;;;;;;1.90;1.70;;;14.10;99.90;15.30;96970.00;;;;5079619;28;20553;-88
2022/09/02 02:48:09;;;;;;;3.93;1.87;;;14.10;99.90;15.30;96962.00;;;;5073581;28;20856;-88
2022/09/02 02:50:58;;;;;;;6.17;1.70;;;14.10;99.90;15.10;96959.00;;;;5073846;28;20188;-89
2022/09/02 02:53:47;;;;;;;2.17;1.90;;;14.10;99.90;15.20;96958.00;;;;5071070;28;20203;-89
2022/09/02 02:56:36;;;;;;;1.80;1.30;;;14.10;99.90;15.20;96947.00;;;;5071097;28;20395;-87
2022/09/02 02:59:25;;;;;;;3.93;1.60;;;14.00;99.90;15.10;96946.00;;;;5078662;28;20602;-88
2022/09/02 03:02:15;;;;;;;2.47;2.03;;;14.10;99.90;14.90;96935.00;;;;5071272;28;20199;-88
2022/09/02 03:05:09;;;;;;;1.87;1.27;;;14.00;99.90;15.00;96944.00;;;;5072631;28;20195;-88
2022/09/02 03:07:58;;;;;;;4.27;2.10;;;14.00;99.90;15.10;96941.00;;;;5070696;28;20191;-88
2022/09/02 03:10:48;;;;;;;1.70;1.50;;;14.00;99.90;15.00;96942.00;;;;5073508;28;20195;-88
2022/09/02 03:13:37;;;;;;;2.53;1.53;;;13.90;99.90;14.90;96934.00;;;;5065018;28;20207;-89
2022/09/02 03:16:26;;;;;;;1.97;1.77;;;13.90;99.90;14.50;96943.00;;;;5071136;28;20196;-87
2022/09/02 03:19:15;;;;;;;2.87;1.70;;;13.80;99.90;14.80;96941.00;;;;5066164;28;20491;-88
2022/09/02 03:22:05;;;;;;;1.67;1.53;;;13.80;99.90;14.50;96940.00;;;;5069219;28;20202;-88
2022/09/02 03:24:54;;;;;;;1.80;1.70;;;13.70;99.90;14.70;96936.00;;;;5087799;28;20195;-88
2022/09/02 03:27:44;;;;;;;3.53;1.70;;;13.70;99.90;15.00;96939.00;;;;5080871;28;20665;-88
2022/09/02 03:30:34;;;;;;;1.80;1.70;;;13.70;99.90;15.10;96937.00;;;;5066177;28;20954;-87
2022/09/02 03:33:23;;;;;;;1.33;1.23;;;13.80;99.90;15.10;96935.00;;;;5067450;28;20210;-88
2022/09/02 03:36:21;;;;;;;2.77;1.70;;;13.80;99.90;15.10;96937.00;;;;5072188;28;20204;-87
2022/09/02 03:39:12;;;;;;;2.77;1.60;;;13.80;99.90;15.00;96931.00;;;;5071898;28;20231;-88
2022/09/02 03:42:01;;;;;;;1.87;1.77;;;13.80;99.90;14.90;96937.00;;;;5077101;28;20198;-87
2022/09/02 03:44:50;;;;;;;1.70;1.60;;;13.80;99.90;14.60;96929.00;;;;5063543;28;20211;-88
2022/09/02 03:47:44;;;;;;;1.63;1.53;;;13.80;99.90;14.90;96934.00;;;;5061901;28;20192;-88
2022/09/02 03:50:36;;;;;;;2.73;1.83;;;13.70;99.90;14.90;96936.00;;;;5070645;28;20197;-88
2022/09/02 03:53:25;;;;;;;3.90;1.70;;;13.70;99.90;14.80;96938.00;;;;5077889;28;20199;-88
2022/09/02 03:56:16;;;;;;;1.37;1.27;;;13.70;99.90;14.80;96936.00;;;;5070762;28;20203;-88
2022/09/02 03:59:05;;;;;;;2.97;2.00;;;13.60;99.90;14.70;96946.00;;;;5066556;28;20238;-89
2022/09/02 04:01:54;;;;;;;1.50;1.40;;;13.60;99.90;14.70;96944.00;;;;5072493;28;20215;-88
2022/09/02 04:04:43;;;;;;;2.90;1.87;;;13.60;99.90;14.80;96942.00;;;;5059542;28;20199;-88
2022/09/02 04:07:32;;;;;;;2.17;1.43;;;13.60;99.90;14.80;96946.00;;;;5069118;28;20684;-87
2022/09/02 04:10:22;;;;;;;1.50;1.07;;;13.60;99.90;14.80;96944.00;;;;5069988;28;20200;-88
2022/09/02 04:13:12;;;;;;;3.03;1.80;;;13.60;99.90;14.70;96939.00;;;;5061890;28;20208;-87
2022/09/02 04:16:07;;;;;;;2.70;1.80;;;13.60;99.90;14.40;96934.00;;;;5068084;28;20211;-88
2022/09/02 04:18:57;;;;;;;1.60;1.50;;;13.50;99.90;14.40;96935.00;;;;5069902;28;20227;-87
2022/09/02 04:21:46;;;;;;;1.40;1.30;;;13.40;99.90;14.50;96941.00;;;;5088190;28;20206;-87
2022/09/02 04:24:35;;;;;;;1.77;1.60;;;13.40;99.90;14.30;96938.00;;;;5062114;28;20200;-88
2022/09/02 04:27:23;;;;;;;1.70;1.60;;;13.40;99.90;14.50;96938.00;;;;5069072;28;20188;-88
2022/09/02 04:30:15;;;;;;;3.93;1.60;;;13.30;99.90;14.50;96935.00;;;;5068038;28;20220;-88
2022/09/02 04:33:04;;;;;;;2.30;1.93;;;13.30;99.90;14.40;96937.00;;;;5069036;28;20207;-88
2022/09/02 04:35:53;;;;;;;3.90;2.37;;;13.30;99.90;14.40;96936.00;;;;5069166;28;20195;-88
2022/09/02 04:38:42;;;;;;;2.80;1.40;;;13.20;99.90;14.20;96933.00;;;;5055916;28;20220;-87
2022/09/02 04:41:32;;;;;;;3.43;2.27;;;13.20;99.90;14.20;96941.00;;;;5052876;28;20204;-88
2022/09/02 04:44:20;;;;;;;1.60;1.50;;;13.10;99.90;14.10;96940.00;;;;5063866;28;20203;-87
2022/09/02 04:47:11;;;;;;;2.07;1.87;;;13.10;99.90;13.80;96944.00;;;;5068724;28;20685;-89
2022/09/02 04:50:00;;;;;;;1.80;1.50;;;13.00;99.90;14.10;96946.00;;;;5068990;28;20238;-87
2022/09/02 04:52:48;;;;;;;1.75;1.55;;;13.00;99.90;14.10;96938.00;;;;5067348;28;20443;-88
2022/09/02 04:55:40;;;;;;;1.57;1.47;;;13.00;99.90;14.10;96945.00;;;;5069898;28;20196;-88
2022/09/02 04:58:29;;;;;;;3.70;1.20;;;13.10;99.90;14.10;96949.00;;;;5062046;28;20613;-88
2022/09/02 05:01:22;;;;;;;1.93;1.70;;;13.00;99.90;14.10;96950.00;;;;5067891;28;20216;-88
2022/09/02 05:04:12;;;;;;;4.37;2.03;;;13.00;99.90;14.00;96943.00;;;;5071087;28;20208;-88
2022/09/02 05:07:01;;;;;;;2.17;1.47;;;12.90;99.90;13.70;96948.00;;;;5071329;28;20207;-89
2022/09/02 05:09:50;;;;;;;2.30;1.73;;;12.90;99.90;13.50;96955.00;;;;5051876;28;20298;-89
2022/09/02 05:12:40;;;;;;;2.20;1.63;;;12.80;99.90;13.80;96961.00;;;;5052917;28;20195;-88
2022/09/02 05:15:30;;;;;;;2.00;1.83;;;12.70;99.90;13.90;96951.00;;;;5066632;28;20203;-88
2022/09/02 05:18:19;;;;;;;2.60;1.60;;;12.70;99.90;13.60;96948.00;;;;5072415;28;20799;-88
2022/09/02 05:21:09;;;;;;;4.37;1.70;;;12.70;99.90;13.50;96957.00;;;;5092064;28;20215;-89
2022/09/02 05:23:58;;;;;;;1.90;1.80;;;12.60;99.90;13.60;96949.00;;;;5070328;28;20696;-87
2022/09/02 05:26:48;;;;;;;6.63;2.20;;;12.50;99.90;13.50;96949.00;;;;5071762;28;20664;-88
2022/09/02 05:29:38;;;;;;;1.70;1.60;;;12.60;99.90;13.50;96957.00;;;;5081291;28;20604;-88
2022/09/02 05:32:28;;;;;;;3.10;1.90;;;12.50;99.90;13.20;96954.00;;;;5087636;28;20236;-88
2022/09/02 05:35:17;;;;;;;3.67;1.90;;;12.40;99.90;13.50;96967.00;;;;5072976;28;20681;-88
2022/09/02 05:38:07;;;;;;;3.47;2.10;;;12.40;99.90;13.40;96965.00;;;;5064479;28;20212;-88
2022/09/02 05:40:56;;;;;;;2.47;2.23;;;12.30;99.90;13.20;96955.00;;;;5072046;28;20814;-88
2022/09/02 05:43:47;;;;;;;7.63;3.13;;;12.30;99.90;13.10;96956.00;;;;5051513;28;20196;-87
2022/09/02 05:46:36;;;;;;;4.75;3.70;;;12.20;99.90;13.00;96960.00;;;;5051106;28;20455;-88
2022/09/02 05:49:25;;;;;;;6.00;4.80;;;12.20;99.90;13.00;96949.00;;;;5075721;28;20490;-88
2022/09/02 05:52:14;;;;;;;10.37;5.40;;;12.20;99.90;13.10;96955.00;;;;5088893;28;20206;-88
2022/09/02 05:55:06;;;;;;;2.40;2.20;;;12.20;99.90;13.20;96951.00;;;;5069097;28;20204;-87
2022/09/02 05:57:54;;;;;;;17.60;9.63;;;12.20;99.90;13.10;96955.00;;;;5072213;28;20219;-88
2022/09/02 06:00:43;;;;;;;39.70;25.10;;;12.20;99.90;13.30;96953.00;;;;5070795;28;20224;-88
2022/09/02 06:03:32;;;;;;;15.20;8.10;;;12.20;99.90;13.50;96944.00;;;;5071316;28;20192;-88
2022/09/02 06:06:21;;;;;;;8.07;6.40;;;12.30;99.90;13.60;96950.00;;;;5071547;28;20196;-88
2022/09/02 06:09:13;;;;;;;6.97;5.73;;;12.40;99.90;13.90;96945.00;;;;5070994;28;20220;-88
2022/09/02 06:12:04;;;;;;;4.70;3.07;;;12.50;99.90;14.10;96950.00;;;;5071243;28;20585;-87
2022/09/02 06:14:53;;;;;;;2.83;2.23;;;12.70;99.90;14.40;96957.00;;;;5076699;28;20204;-86
2022/09/02 06:17:42;;;;;;;12.67;3.97;;;12.90;99.90;14.90;96954.00;;;;5068090;28;20204;-88
2022/09/02 06:20:31;;;;;;;8.30;2.70;;;13.10;99.90;15.20;96949.00;;;;5081102;28;20230;-87
2022/09/02 06:23:20;;;;;;;7.50;2.40;;;13.30;99.90;15.30;96956.00;;;;5074179;28;20253;-86
2022/09/02 06:26:11;;;;;;;3.97;2.53;;;13.60;99.90;15.40;96951.00;;;;5070829;28;20203;-86
2022/09/02 06:29:01;;;;;;;3.80;1.97;;;13.80;99.90;15.20;96945.00;;;;5069795;28;20223;-88
2022/09/02 06:31:51;;;;;;;10.23;2.67;;;14.00;99.90;15.60;96951.00;;;;5069111;28;20208;-87
2022/09/02 06:34:40;;;;;;;3.00;2.20;;;14.10;99.90;15.80;96949.00;;;;5069950;28;20196;-87
2022/09/02 06:37:29;;;;;;;6.23;2.30;;;14.30;99.90;15.80;96949.00;;;;5071522;28;20192;-88
2022/09/02 06:40:18;;;;;;;6.00;2.33;;;14.40;99.90;16.10;96939.00;;;;5069673;28;20245;-87
2022/09/02 06:43:07;;;;;;;1.90;1.70;;;14.60;99.90;16.30;96948.00;;;;5076740;28;20200;-87
2022/09/02 06:45:57;;;;;;;2.30;1.77;;;14.70;99.90;16.60;96949.00;;;;5070530;28;20211;-87
2022/09/02 06:48:47;;;;;;;3.63;2.07;;;14.90;99.90;16.50;96952.00;;;;5062008;28;20232;-87
2022/09/02 06:51:38;;;;;;;6.60;2.50;;;15.10;99.90;16.70;96956.00;;;;5065212;28;20220;-87
2022/09/02 06:54:27;;;;;;;2.93;2.07;;;15.20;99.90;16.90;96949.00;;;;5069846;28;20196;-87
2022/09/02 06:57:16;;;;;;;6.03;2.20;;;15.30;99.90;17.00;96948.00;;;;5068713;28;20223;-87
2022/09/02 07:00:08;;;;;;;3.63;2.03;;;15.40;99.90;16.80;96952.00;;;;5068210;28;20208;-87
2022/09/02 07:06:09;;;;;;;2.77;1.63;;;15.60;99.90;17.20;96951.00;;;;5056617;28;20188;-87
2022/09/02 07:08:57;;;;;;;9.47;2.53;;;15.70;99.90;17.20;96954.00;;;;5055473;28;20221;-86
2022/09/02 07:11:53;;;;;;;12.07;2.10;;;15.80;99.90;17.60;96945.00;;;;5066545;28;20206;-86
2022/09/02 07:15:27;;;;;;;6.70;2.20;;;15.90;99.90;18.00;96946.00;;;;5066331;28;20272;-88
2022/09/02 07:19:15;;;;;;;3.33;2.00;;;16.10;99.90;18.20;96956.00;;;;5047599;28;20221;-87
2022/09/02 07:32:55;;;;;;;4.23;2.13;;;17.10;99.90;19.30;96944.00;;;;5016500;28;20352;-69
2022/09/02 07:35:45;;;;;;;6.67;1.90;;;17.30;99.90;19.40;96953.00;;;;5029780;28;20197;-69
2022/09/02 07:38:36;;;;;;;2.60;1.80;;;17.60;99.90;19.40;96957.00;;;;5029078;28;20668;-68
2022/09/02 07:41:25;;;;;;;4.03;1.63;;;17.70;99.90;19.70;96953.00;;;;5039377;28;20220;-69
2022/09/02 07:44:15;;;;;;;2.70;1.97;;;17.90;99.90;19.90;96948.00;;;;5024516;28;20277;-69
2022/09/02 07:47:04;;;;;;;5.87;2.00;;;18.00;99.90;19.90;96956.00;;;;5023885;28;20194;-68
2022/09/02 07:49:53;;;;;;;5.60;1.93;;;18.10;99.90;20.00;96954.00;;;;5009444;28;20202;-69
2022/09/02 07:53:05;;;;;;;5.50;1.97;;;18.20;99.90;20.20;96962.00;;;;5008817;28;20281;-68
2022/09/02 07:55:55;;;;;;;1.70;1.17;;;18.40;99.90;20.40;96960.00;;;;5021364;28;20200;-69
2022/09/02 07:58:46;;;;;;;0.77;0.77;;;18.50;99.90;20.40;96960.00;;;;5022240;28;20703;-69
2022/09/02 08:01:35;;;;;;;3.03;1.63;;;18.70;99.90;20.40;96958.00;;;;5022332;28;20221;-69
2022/09/02 08:04:24;;;;;;;3.07;1.43;;;18.70;99.90;20.10;96953.00;;;;5027175;28;20193;-69
2022/09/02 08:07:13;;;;;;;1.93;1.70;;;18.80;99.90;20.40;96957.00;;;;5027299;28;20201;-68
2022/09/02 08:10:02;;;;;;;2.90;1.40;;;18.80;99.90;20.70;96954.00;;;;5026572;28;20563;-68
2022/09/02 08:12:52;;;;;;;1.83;1.20;;;18.90;99.90;21.00;96962.00;;;;5026893;28;20201;-69
2022/09/02 08:15:41;;;;;;;2.13;1.47;;;19.00;99.90;21.10;96959.00;;;;5029565;28;20194;-69
2022/09/02 08:18:30;;;;;;;1.53;1.17;;;19.20;99.90;21.20;96965.00;;;;5019967;28;20240;-69
2022/09/02 08:21:19;;;;;;;2.57;1.40;;;19.40;99.90;20.80;96953.00;;;;5027881;28;20722;-69
2022/09/02 08:24:08;;;;;;;1.87;1.57;;;19.40;99.90;21.40;96957.00;;;;5028891;28;20197;-68
2022/09/02 08:26:57;;;;;;;2.00;1.17;;;19.60;99.90;21.50;96966.00;;;;5028223;28;20209;-69
2022/09/02 08:29:47;;;;;;;2.57;1.43;;;19.60;99.90;20.70;96952.00;;;;5024760;28;20281;-69
2022/09/02 08:32:36;;;;;;;2.37;1.13;;;19.60;98.40;20.90;96954.00;;;;5021497;28;20727;-68
2022/09/02 08:35:25;;;;;;;4.37;1.60;;;19.50;99.80;21.00;96952.00;;;;5008523;28;20696;-70
2022/09/02 08:38:14;;;;;;;4.23;1.10;;;19.50;97.30;21.30;96953.00;;;;5014883;28;20197;-69
2022/09/02 08:41:03;;;;;;;2.37;1.37;;;19.60;98.30;21.70;96953.00;;;;5029474;28;20248;-68
2022/09/02 08:43:55;;;;;;;1.07;0.87;;;19.70;98.80;21.60;96951.00;;;;5029048;28;20205;-68
2022/09/02 08:46:46;;;;;;;5.00;2.13;;;19.80;98.40;21.80;96957.00;;;;5032391;28;20205;-69
2022/09/02 08:49:41;;;;;;;2.47;1.00;;;19.90;98.10;21.90;96951.00;;;;5022716;28;20208;-69
2022/09/02 08:52:38;;;;;;;1.30;1.10;;;20.10;98.00;22.10;96949.00;;;;5010720;28;20201;-68
2022/09/02 08:55:36;;;;;;;1.43;1.00;;;20.20;97.10;22.30;96939.00;;;;5015690;28;20552;-69
2022/09/02 08:58:30;;;;;;;2.10;1.47;;;20.40;96.60;22.40;96944.00;;;;5011929;28;20198;-69
2022/09/02 09:01:30;;;;;;;1.40;1.30;;;20.50;95.90;22.10;96945.00;;;;5010557;28;20234;-68
2022/09/02 09:04:42;;;;;;;3.87;1.23;;;20.60;94.80;21.00;96933.00;;;;5011252;28;20225;-69
2022/09/02 09:07:38;;;;;;;2.17;1.30;;;20.50;91.90;21.80;96933.00;;;;5013076;28;20591;-68
2022/09/02 09:10:38;;;;;;;0.83;0.83;;;20.40;92.40;21.80;96932.00;;;;5010960;28;20225;-68
2022/09/02 09:14:03;;;;;;;1.53;1.10;;;20.50;93.10;22.20;96939.00;;;;5010095;28;20590;-67
2022/09/02 09:16:58;;;;;;;1.23;1.07;;;20.60;91.60;22.60;96933.00;;;;5009777;28;20210;-69
2022/09/02 09:19:53;;;;;;;1.93;1.43;;;20.80;90.70;22.60;96934.00;;;;5021957;28;20205;-69
2022/09/02 09:22:43;;;;;;;2.20;1.20;;;20.90;90.60;22.10;96927.00;;;;5011164;28;20762;-68
2022/09/02 09:25:32;;;;;;;1.50;0.90;;;21.00;89.20;22.30;96932.00;;;;5011133;28;20206;-70
2022/09/02 09:28:21;;;;;;;4.53;1.30;;;21.00;87.00;23.10;96932.00;;;;5016682;28;20726;-67
2022/09/02 09:31:13;;;;;;;3.63;1.00;;;21.10;88.50;23.40;96925.00;;;;5021904;28;20228;-69
2022/09/02 09:34:04;;;;;;;1.53;1.07;;;21.30;88.10;23.10;96921.00;;;;5011183;28;20194;-68
2022/09/02 09:36:56;;;;;;;1.30;0.90;;;21.50;82.90;22.90;96908.00;;;;5024481;28;20201;-68
2022/09/02 09:39:45;;;;;;;1.47;0.83;;;21.60;79.90;23.60;96912.00;;;;5024180;28;20214;-69
2022/09/02 09:42:37;;;;;;;1.37;0.97;;;21.70;82.40;23.40;96904.00;;;;5022855;28;20592;-69
2022/09/02 09:45:32;;;;;;;1.63;0.90;;;21.80;79.50;23.60;96915.00;;;;5031437;28;20197;-68
2022/09/02 09:48:26;;;;;;;1.30;1.10;;;22.00;80.60;23.60;96902.00;;;;5020351;28;20202;-69
2022/09/02 09:51:16;;;;;;;1.97;1.07;;;22.10;79.20;24.70;96904.00;;;;5013571;28;20229;-69
2022/09/02 09:54:18;;;;;;;1.50;0.87;;;22.40;80.20;24.00;96907.00;;;;5020703;28;20206;-69
2022/09/02 09:57:20;;;;;;;1.50;1.00;;;22.60;78.30;22.40;96893.00;;;;5014998;28;20612;-72
2022/09/02 10:00:20;;;;;;;1.47;1.37;;;22.40;74.40;22.80;96886.00;;;;5009876;28;20762;-69
2022/09/02 10:03:23;;;;;;;3.60;1.40;;;22.10;74.00;23.60;96898.00;;;;5008638;28;20237;-69
2022/09/02 10:06:21;;;;;;;5.20;2.97;;;22.00;76.80;25.00;96897.00;;;;5018910;28;20197;-69
2022/09/02 10:09:32;;;;;;;1.27;1.10;;;22.40;79.70;25.50;96904.00;;;;5014629;28;20231;-70
2022/09/02 10:12:33;;;;;;;2.93;1.00;;;22.90;78.60;25.50;96890.00;;;;5009410;28;20232;-70
2022/09/02 10:15:37;;;;;;;0.90;0.90;;;23.30;76.20;24.60;96894.00;;;;5010174;28;20576;-70
2022/09/02 10:18:37;;;;;;;1.20;0.80;;;23.60;70.10;23.90;96882.00;;;;5013225;28;20201;-70
2022/09/02 10:21:50;;;;;;;1.10;1.00;;;23.30;68.10;23.80;96879.00;;;;5015787;28;20228;-71
2022/09/02 10:25:01;;;;;;;2.83;1.03;;;23.00;70.00;23.80;96871.00;;;;5009183;28;20205;-68
2022/09/02 10:27:59;;;;;;;2.97;0.73;;;23.00;67.70;22.80;96871.00;;;;5012669;28;20194;-72
2022/09/02 10:30:57;;;;;;;2.30;1.00;;;22.70;68.30;24.40;96876.00;;;;5012175;28;20226;-69
2022/09/02 10:34:03;;;;;;;0.93;0.83;;;22.60;69.90;24.20;96878.00;;;;5013316;28;20690;-69
2022/09/02 10:37:11;;;;;;;1.73;1.13;;;22.80;69.20;25.00;96873.00;;;;5009099;28;20236;-69
2022/09/02 10:40:12;;;;;;;1.57;1.27;;;23.10;67.00;25.20;96863.00;;;;5019346;28;20583;-69
2022/09/02 10:43:06;;;;;;;1.10;0.90;;;23.40;65.20;27.00;96854.00;;;;5021274;28;20587;-70
2022/09/02 10:46:00;;;;;;;2.53;0.80;;;23.90;68.10;27.70;96862.00;;;;5030318;28;20198;-69
2022/09/02 10:49:02;;;;;;;1.77;1.30;;;24.60;67.70;27.50;96861.00;;;;5015616;28;20700;-69
2022/09/02 10:52:00;;;;;;;0.90;0.90;;;25.10;61.80;25.60;96835.00;;;;5009084;28;20218;-69
2022/09/02 10:55:00;;;;;;;0.93;0.87;;;25.10;60.00;24.90;96832.00;;;;5020295;28;20209;-68
2022/09/02 10:57:58;;;;;;;1.63;0.93;;;24.70;61.50;27.00;96856.00;;;;5009768;28;20199;-68
2022/09/02 11:00:51;;;;;;;2.67;1.20;;;24.70;63.20;25.60;96821.00;;;;5009122;28;20600;-70
2022/09/02 11:03:45;;;;;;;1.40;1.10;;;25.00;59.70;26.20;96874.00;;;;5008654;28;20232;-70
2022/09/02 11:06:39;;;;;;;3.60;1.23;;;24.80;60.80;26.70;96854.00;;;;5009652;28;20705;-68
2022/09/02 11:09:53;;;;;;;1.57;1.10;;;24.70;60.00;26.50;96879.00;;;;5014334;28;20208;-69
2022/09/02 11:12:48;;;;;;;1.17;0.93;;;24.80;61.20;26.60;96865.00;;;;5016404;28;20222;-70
2022/09/02 11:15:47;;;;;;;1.20;1.00;;;24.80;64.30;26.50;96866.00;;;;5015888;28;20207;-70
2022/09/02 11:18:44;;;;;;;2.30;1.10;;;24.80;63.30;26.10;96874.00;;;;5022324;28;20201;-69
2022/09/02 11:21:49;;;;;;;1.30;1.20;;;24.90;64.40;27.50;96864.00;;;;5018359;28;20217;-69
2022/09/02 11:24:47;;;;;;;2.83;1.00;;;25.00;62.80;23.90;96847.00;;;;5009296;28;20235;-68
2022/09/02 11:27:44;;;;;;;0.90;0.87;;;24.50;59.80;26.60;96801.00;;;;5010278;28;20591;-69
2022/09/02 11:30:42;;;;;;;1.10;0.80;;;24.40;63.10;27.90;96856.00;;;;5008976;28;21005;-69
2022/09/02 11:33:51;;;;;;;0.93;0.93;;;25.00;65.70;27.10;96794.00;;;;5010981;28;20580;-70
2022/09/02 11:36:41;;;;;;;1.10;1.00;;;25.60;61.30;28.10;96804.00;;;;5011912;28;20296;-68
2022/09/02 11:39:38;;;;;;;0.60;0.60;;;25.80;62.00;26.30;96794.00;;;;5009447;28;20210;-73
2022/09/02 11:43:05;;;;;;;3.00;0.93;;;26.20;59.80;26.50;96807.00;;;;5015092;28;20288;-69
2022/09/02 11:46:27;;;;;;;1.83;1.03;;;25.70;60.90;29.20;96860.00;;;;5021893;28;20199;-69
2022/09/02 11:49:54;;;;;;;1.73;1.17;;;26.10;63.50;27.40;96806.00;;;;5020359;28;20211;-69
2022/09/02 11:53:00;;;;;;;1.67;1.10;;;26.30;59.10;30.30;96795.00;;;;5007934;28;20706;-69
2022/09/02 11:55:55;;;;;;;1.43;1.00;;;26.90;60.60;31.60;96795.00;;;;5009009;28;20201;-69
2022/09/02 11:58:46;;;;;;;1.20;0.80;;;27.80;62.00;28.30;96786.00;;;;5009154;28;20204;-69
2022/09/02 12:01:38;;;;;;;1.03;0.80;;;27.70;55.50;27.00;96842.00;;;;5033618;23;20233;-86
2022/09/02 12:04:27;;;;;;;1.80;0.93;;;27.10;56.00;27.00;96840.00;;;;5041408;28;20292;-86
2022/09/02 12:07:50;;;;;;;1.60;0.97;;;26.70;58.80;24.20;96792.00;;;;5024848;28;20291;-86
2022/09/02 12:11:00;;;;;;;1.00;0.90;;;25.40;56.90;24.90;96825.00;;;;5021743;28;20219;-84
2022/09/02 12:13:49;;;;;;;2.40;1.10;;;24.80;57.90;24.40;96771.00;;;;5028955;28;20706;-87
2022/09/02 12:17:03;;;;;;;2.33;1.20;;;24.20;58.10;26.70;96764.00;;;;5019462;28;20228;-88
2022/09/02 12:19:52;;;;;;;1.10;0.97;;;24.60;60.20;28.10;96836.00;;;;5026474;28;20539;-89
2022/09/02 12:22:41;;;;;;;1.30;1.10;;;25.30;59.80;27.60;96840.00;;;;5021744;28;20202;-88
2022/09/02 12:25:48;;;;;;;1.27;0.83;;;25.40;59.60;25.50;96826.00;;;;5031166;28;20222;-86
2022/09/02 12:28:38;;;;;;;3.43;1.00;;;25.00;58.40;25.80;96818.00;;;;5023859;28;20205;-88
2022/09/02 12:31:43;;;;;;;1.40;1.07;;;24.80;58.20;25.40;96821.00;;;;5019927;28;20213;-91
2022/09/02 12:34:56;;;;;;;1.20;1.10;;;24.60;59.30;26.30;96822.00;;;;5014780;28;20314;-87
2022/09/02 12:38:22;;;;;;;1.20;1.03;;;24.50;59.30;27.20;96818.00;;;;5013028;28;20582;-87
2022/09/02 12:41:32;;;;;;;1.17;0.90;;;24.70;61.20;27.30;96822.00;;;;5025770;28;20628;-87
2022/09/02 12:44:42;;;;;;;1.23;1.10;;;25.00;62.00;28.40;96776.00;;;;5021677;28;20225;-88
2022/09/02 12:56:20;;;;;;;0.80;0.80;;;26.80;57.10;32.00;96743.00;;;;5016470;28;20214;-89
2022/09/02 13:04:03;;;;;;;1.92;0.80;;;28.90;55.70;29.90;96809.00;;;;5011715;28;20590;-89
2022/09/02 13:08:11;;;;;;;1.15;1.00;;;28.50;55.40;29.60;96825.00;;;;4994353;28;20714;-88
2022/09/02 13:12:04;;;;;;;4.68;1.30;;;28.30;56.10;28.90;96812.00;;;;5020259;28;20201;-88
2022/09/02 13:15:47;;;;;;;2.47;0.98;;;27.80;55.50;29.00;96796.00;;;;5013795;28;20228;-90
2022/09/02 13:19:12;;;;;;;1.88;1.10;;;27.60;56.00;28.00;96778.00;;;;5013569;28;20214;-89
2022/09/02 13:22:59;;;;;;;2.55;0.90;;;27.50;55.10;29.10;96806.00;;;;5017099;28;20205;-89